createdAt,value
2018-03-26T00:01:26.039Z,-1.80
2018-03-26T00:03:53.608Z,-1.80
2018-03-26T00:06:21.225Z,-1.70
2018-03-26T00:08:49.551Z,-1.50
2018-03-26T00:11:17.122Z,-1.50
2018-03-26T00:13:44.684Z,-1.40
2018-03-26T00:16:12.313Z,-1.30
2018-03-26T00:18:39.934Z,-1.20
2018-03-26T00:21:07.523Z,-1.10
2018-03-26T00:23:35.104Z,-1.00
2018-03-26T00:26:02.743Z,-0.90
2018-03-26T00:28:30.322Z,-0.80
2018-03-26T00:30:57.913Z,-0.80
2018-03-26T00:33:25.519Z,-0.70
2018-03-26T00:35:53.127Z,-0.60
2018-03-26T00:38:20.694Z,-0.60
2018-03-26T00:40:48.291Z,-0.50
2018-03-26T00:43:15.838Z,-0.50
2018-03-26T00:45:43.429Z,-0.50
2018-03-26T00:48:11.016Z,-0.50
2018-03-26T00:50:38.650Z,-0.60
2018-03-26T00:53:06.223Z,-0.60
2018-03-26T00:55:33.796Z,-0.70
2018-03-26T00:58:01.430Z,-0.80
2018-03-26T01:00:29.098Z,-0.80
2018-03-26T01:02:56.728Z,-0.90
2018-03-26T01:05:24.318Z,-1.00
2018-03-26T01:07:51.918Z,-1.10
2018-03-26T01:10:19.470Z,-1.20
2018-03-26T01:12:47.114Z,-1.30
2018-03-26T01:15:14.682Z,-1.40
2018-03-26T01:17:42.255Z,-1.40
2018-03-26T01:20:09.810Z,-1.50
2018-03-26T01:22:37.385Z,-1.60
2018-03-26T01:25:05.001Z,-1.70
2018-03-26T01:27:32.602Z,-1.70
2018-03-26T01:30:00.162Z,-1.80
2018-03-26T01:32:28.512Z,-1.80
2018-03-26T01:34:56.089Z,-1.80
2018-03-26T01:37:23.691Z,-1.80
2018-03-26T01:39:51.331Z,-1.90
2018-03-26T01:42:18.904Z,-1.90
2018-03-26T01:44:46.481Z,-1.90
2018-03-26T01:47:14.087Z,-1.90
2018-03-26T01:49:42.455Z,-2.00
2018-03-26T01:52:10.904Z,-2.00
2018-03-26T01:54:38.583Z,-2.00
2018-03-26T01:57:06.201Z,-2.00
2018-03-26T01:59:33.781Z,-2.10
2018-03-26T02:02:01.360Z,-2.10
2018-03-26T02:04:28.928Z,-2.10
2018-03-26T02:06:56.527Z,-2.20
2018-03-26T02:09:24.138Z,-2.20
2018-03-26T02:11:51.710Z,-2.20
2018-03-26T02:14:19.321Z,-2.20
2018-03-26T02:16:46.905Z,-2.20
2018-03-26T02:19:14.531Z,-2.20
2018-03-26T02:21:42.119Z,-2.20
2018-03-26T02:24:09.703Z,-2.20
2018-03-26T02:26:37.348Z,-2.20
2018-03-26T02:29:04.871Z,-2.30
2018-03-26T02:31:32.474Z,-2.30
2018-03-26T02:34:00.138Z,-2.30
2018-03-26T02:36:27.705Z,-2.40
2018-03-26T02:38:55.294Z,-2.40
2018-03-26T02:41:22.900Z,-2.30
2018-03-26T02:43:50.492Z,-2.30
2018-03-26T02:46:18.053Z,-2.30
2018-03-26T02:48:46.416Z,-2.40
2018-03-26T02:51:13.978Z,-2.40
2018-03-26T02:53:41.602Z,-2.40
2018-03-26T02:56:09.168Z,-2.50
2018-03-26T02:58:36.762Z,-2.50
2018-03-26T03:01:04.341Z,-2.60
2018-03-26T03:03:32.744Z,-2.70
2018-03-26T03:06:00.307Z,-2.70
2018-03-26T03:08:27.904Z,-2.70
2018-03-26T03:10:55.457Z,-2.70
2018-03-26T03:13:23.063Z,-2.70
2018-03-26T03:15:50.624Z,-2.70
2018-03-26T03:18:18.207Z,-2.70
2018-03-26T03:20:45.772Z,-2.80
2018-03-26T03:23:13.358Z,-2.80
2018-03-26T03:25:41.025Z,-2.80
2018-03-26T03:28:08.637Z,-2.80
2018-03-26T03:30:36.181Z,-2.90
2018-03-26T03:33:03.770Z,-2.90
2018-03-26T03:35:31.312Z,-2.90
2018-03-26T03:37:58.879Z,-2.90
2018-03-26T03:40:26.457Z,-2.90
2018-03-26T03:42:54.051Z,-3.00
2018-03-26T03:45:21.614Z,-3.00
2018-03-26T03:47:49.189Z,-3.00
2018-03-26T03:50:16.762Z,-3.00
2018-03-26T03:52:44.345Z,-3.00
2018-03-26T03:55:11.902Z,-3.10
2018-03-26T03:57:39.472Z,-3.10
2018-03-26T04:00:07.078Z,-3.10
2018-03-26T04:02:36.633Z,-3.10
2018-03-26T04:05:04.191Z,-3.10
2018-03-26T04:07:31.796Z,-3.10
2018-03-26T04:10:00.116Z,-3.00
2018-03-26T04:12:27.748Z,-3.10
2018-03-26T04:14:55.293Z,-3.10
2018-03-26T04:17:23.648Z,-3.10
2018-03-26T04:19:51.189Z,-3.10
2018-03-26T04:22:18.800Z,-3.10
2018-03-26T04:24:47.116Z,-3.20
2018-03-26T04:27:14.702Z,-3.20
2018-03-26T04:29:42.279Z,-3.10
2018-03-26T04:32:10.642Z,-3.10
2018-03-26T04:34:38.212Z,-3.10
2018-03-26T04:37:05.757Z,-3.10
2018-03-26T04:39:33.335Z,-3.10
2018-03-26T04:42:01.699Z,-3.00
2018-03-26T04:44:29.279Z,-3.00
2018-03-26T04:46:57.619Z,-2.90
2018-03-26T04:49:25.209Z,-3.00
2018-03-26T04:51:53.546Z,-2.90
2018-03-26T04:54:21.109Z,-3.00
2018-03-26T04:56:48.658Z,-3.00
2018-03-26T04:59:16.257Z,-3.00
2018-03-26T05:01:43.817Z,-3.00
2018-03-26T05:04:11.704Z,-3.10
2018-03-26T05:06:39.285Z,-3.10
2018-03-26T05:09:06.888Z,-3.10
2018-03-26T05:11:34.472Z,-3.00
2018-03-26T05:14:02.833Z,-3.00
2018-03-26T05:16:30.394Z,-3.00
2018-03-26T05:18:58.726Z,-2.90
2018-03-26T05:21:26.273Z,-2.90
2018-03-26T05:23:53.837Z,-2.80
2018-03-26T05:26:21.382Z,-2.70
2018-03-26T05:28:48.942Z,-2.60
2018-03-26T05:31:16.478Z,-2.50
2018-03-26T05:33:44.034Z,-2.40
2018-03-26T05:36:11.591Z,-2.30
2018-03-26T05:38:39.919Z,-2.10
2018-03-26T05:41:07.459Z,-2.10
2018-03-26T05:43:35.019Z,-2.00
2018-03-26T05:46:02.551Z,-2.00
2018-03-26T05:48:30.910Z,-1.80
2018-03-26T05:50:58.458Z,-1.90
2018-03-26T05:53:26.021Z,-1.70
2018-03-26T05:55:53.555Z,-1.60
2018-03-26T05:58:21.109Z,-1.50
2018-03-26T06:00:48.651Z,-1.40
2018-03-26T06:03:16.219Z,-1.30
2018-03-26T06:05:43.766Z,-1.10
2018-03-26T06:08:11.353Z,-1.00
2018-03-26T06:10:38.895Z,-0.90
2018-03-26T06:13:06.450Z,-0.70
2018-03-26T06:15:34.787Z,-0.50
2018-03-26T06:18:02.335Z,-0.60
2018-03-26T06:20:29.906Z,-0.40
2018-03-26T06:22:58.250Z,-0.10
2018-03-26T06:25:25.781Z,-0.20
2018-03-26T06:27:53.337Z,-0.10
2018-03-26T06:30:20.869Z,0.00
2018-03-26T06:32:48.428Z,0.10
2018-03-26T06:35:16.754Z,0.30
2018-03-26T06:37:46.806Z,0.30
2018-03-26T06:40:15.109Z,0.40
2018-03-26T06:42:42.641Z,0.40
2018-03-26T06:45:10.955Z,0.50
2018-03-26T06:47:38.537Z,0.50
2018-03-26T06:50:06.102Z,0.60
2018-03-26T06:52:33.626Z,0.70
2018-03-26T06:55:01.933Z,0.90
2018-03-26T06:57:29.470Z,0.90
2018-03-26T06:59:57.022Z,1.00
2018-03-26T07:02:24.576Z,1.10
2018-03-26T07:04:52.126Z,1.30
2018-03-26T07:07:19.659Z,1.40
2018-03-26T07:09:47.205Z,1.40
2018-03-26T07:12:14.735Z,1.50
2018-03-26T07:14:42.289Z,1.60
2018-03-26T07:17:09.812Z,1.70
2018-03-26T07:19:37.365Z,1.70
2018-03-26T07:22:04.896Z,1.70
2018-03-26T07:24:32.445Z,1.80
2018-03-26T07:26:59.974Z,1.80
2018-03-26T07:29:27.521Z,1.90
2018-03-26T07:31:55.049Z,1.90
2018-03-26T07:34:22.589Z,1.90
2018-03-26T07:36:50.128Z,2.00
2018-03-26T07:39:17.666Z,2.00
2018-03-26T07:41:45.196Z,2.00
2018-03-26T07:44:12.762Z,2.10
2018-03-26T07:46:40.292Z,2.10
2018-03-26T07:49:08.610Z,2.00
2018-03-26T07:51:36.146Z,2.00
2018-03-26T07:54:03.698Z,2.00
2018-03-26T07:56:31.239Z,2.00
2018-03-26T07:58:58.783Z,2.10
2018-03-26T08:01:26.309Z,2.10
2018-03-26T08:03:53.856Z,2.10
2018-03-26T08:06:21.383Z,2.10
2018-03-26T08:08:49.696Z,2.20
2018-03-26T08:11:17.223Z,2.20
2018-03-26T08:13:45.537Z,2.20
2018-03-26T08:16:13.077Z,2.20
2018-03-26T08:18:40.626Z,2.20
2018-03-26T08:21:08.145Z,2.30
2018-03-26T08:23:35.689Z,2.40
2018-03-26T08:26:03.226Z,2.50
2018-03-26T08:28:30.775Z,2.50
2018-03-26T08:30:58.362Z,2.70
2018-03-26T08:33:25.857Z,2.80
2018-03-26T08:35:54.165Z,3.00
2018-03-26T08:38:21.702Z,2.90
2018-03-26T08:40:49.299Z,2.90
2018-03-26T08:43:17.745Z,2.90
2018-03-26T08:45:45.288Z,2.80
2018-03-26T08:48:13.579Z,3.00
2018-03-26T08:50:41.125Z,3.00
2018-03-26T08:53:09.474Z,3.00
2018-03-26T08:55:37.025Z,3.00
2018-03-26T08:58:04.545Z,3.00
2018-03-26T09:00:32.090Z,3.00
2018-03-26T09:02:59.626Z,3.20
2018-03-26T09:05:27.945Z,3.40
2018-03-26T09:07:55.489Z,3.40
2018-03-26T09:10:23.083Z,3.40
2018-03-26T09:12:50.614Z,3.40
2018-03-26T09:15:18.165Z,3.50
2018-03-26T09:17:45.692Z,3.70
2018-03-26T09:20:13.237Z,3.80
2018-03-26T09:22:40.766Z,3.80
2018-03-26T09:25:08.314Z,4.10
2018-03-26T09:27:35.840Z,4.00
2018-03-26T09:30:03.389Z,4.20
2018-03-26T09:32:31.670Z,4.20
2018-03-26T09:34:59.983Z,4.40
2018-03-26T09:37:27.525Z,4.30
2018-03-26T09:39:55.079Z,4.50
2018-03-26T09:42:22.639Z,4.70
2018-03-26T09:44:50.221Z,4.80
2018-03-26T09:47:17.745Z,4.90
2018-03-26T09:49:45.295Z,4.80
2018-03-26T09:52:12.826Z,4.80
2018-03-26T09:54:40.373Z,4.70
2018-03-26T09:57:07.909Z,4.80
2018-03-26T09:59:36.358Z,5.00
2018-03-26T10:02:03.897Z,5.20
2018-03-26T10:04:32.209Z,5.50
2018-03-26T10:06:59.778Z,5.50
2018-03-26T10:09:27.338Z,5.70
2018-03-26T10:11:54.883Z,5.80
2018-03-26T10:14:22.442Z,6.00
2018-03-26T10:16:49.969Z,5.90
2018-03-26T10:19:18.264Z,6.00
2018-03-26T10:21:45.817Z,6.00
2018-03-26T10:24:13.350Z,6.00
2018-03-26T10:26:42.501Z,6.60
2018-03-26T10:29:10.031Z,6.60
2018-03-26T10:31:37.586Z,6.80
2018-03-26T10:34:05.890Z,6.80
2018-03-26T10:36:33.491Z,6.80
2018-03-26T10:39:01.035Z,6.70
2018-03-26T10:41:28.604Z,7.10
2018-03-26T10:43:56.155Z,7.30
2018-03-26T10:46:23.732Z,7.40
2018-03-26T10:48:51.274Z,7.40
2018-03-26T10:51:18.830Z,7.50
2018-03-26T10:53:46.375Z,7.40
2018-03-26T10:56:13.934Z,6.80
2018-03-26T10:58:41.489Z,7.10
2018-03-26T11:01:09.031Z,7.30
2018-03-26T11:03:36.562Z,7.70
2018-03-26T11:06:04.902Z,7.30
2018-03-26T11:08:32.437Z,7.30
2018-03-26T11:11:00.002Z,7.50
2018-03-26T11:13:27.602Z,7.70
2018-03-26T11:15:55.159Z,7.90
2018-03-26T11:18:23.530Z,8.00
2018-03-26T11:20:51.882Z,8.20
2018-03-26T11:23:19.418Z,8.20
2018-03-26T11:25:46.984Z,8.10
2018-03-26T11:28:14.525Z,8.00
2018-03-26T11:30:42.130Z,8.40
2018-03-26T11:33:09.682Z,8.20
2018-03-26T11:35:37.262Z,8.30
2018-03-26T11:38:05.627Z,9.30
2018-03-26T11:40:33.222Z,9.30
2018-03-26T11:43:00.818Z,9.80
2018-03-26T11:45:28.392Z,10.20
2018-03-26T11:47:55.936Z,9.90
2018-03-26T11:50:23.506Z,10.10
2018-03-26T11:52:51.062Z,10.70
2018-03-26T11:55:18.625Z,10.80
2018-03-26T11:57:46.177Z,10.30
2018-03-26T12:00:13.754Z,10.70
2018-03-26T12:02:41.296Z,10.70
2018-03-26T12:05:08.870Z,10.90
2018-03-26T12:07:37.228Z,10.80
2018-03-26T12:10:04.810Z,10.80
2018-03-26T12:12:32.365Z,10.70
2018-03-26T12:15:00.027Z,10.40
2018-03-26T12:17:27.612Z,10.40
2018-03-26T12:20:07.742Z,10.80
2018-03-26T12:22:35.279Z,10.70
2018-03-26T12:25:08.542Z,10.40
2018-03-26T12:27:48.078Z,10.20
2018-03-26T12:30:18.122Z,10.10
2018-03-26T12:32:45.653Z,9.50
2018-03-26T12:35:24.777Z,9.30
2018-03-26T12:37:52.301Z,9.10
2018-03-26T12:40:31.623Z,9.20
2018-03-26T12:42:59.171Z,9.30
2018-03-26T12:45:38.537Z,9.20
2018-03-26T12:48:06.070Z,8.90
2018-03-26T12:50:45.374Z,8.80
2018-03-26T12:53:13.641Z,8.70
2018-03-26T12:55:41.172Z,9.00
2018-03-26T12:58:21.259Z,8.80
2018-03-26T13:01:01.287Z,8.80
2018-03-26T13:03:29.577Z,8.90
2018-03-26T13:05:57.106Z,8.90
2018-03-26T13:08:25.422Z,9.00
2018-03-26T13:10:52.961Z,9.00
2018-03-26T13:13:20.505Z,9.20
2018-03-26T13:15:48.798Z,9.60
2018-03-26T13:18:16.583Z,9.50
2018-03-26T13:20:44.108Z,9.60
2018-03-26T13:23:12.442Z,9.80
2018-03-26T13:25:41.233Z,9.80
2018-03-26T13:28:08.879Z,10.00
2018-03-26T13:30:36.390Z,10.00
2018-03-26T13:33:04.705Z,10.00
2018-03-26T13:35:32.233Z,10.00
2018-03-26T13:37:59.782Z,10.50
2018-03-26T13:40:28.082Z,10.90
2018-03-26T13:42:55.637Z,10.90
2018-03-26T13:45:23.177Z,11.10
2018-03-26T13:47:51.495Z,10.90
2018-03-26T13:50:19.051Z,10.90
2018-03-26T13:52:46.592Z,11.00
2018-03-26T13:55:14.142Z,10.90
2018-03-26T13:57:41.678Z,11.00
2018-03-26T14:00:10.030Z,10.20
2018-03-26T14:02:37.562Z,10.20
2018-03-26T14:05:05.122Z,10.00
2018-03-26T14:07:32.656Z,10.20
2018-03-26T14:10:12.026Z,10.00
2018-03-26T14:12:51.326Z,10.20
2018-03-26T14:15:30.869Z,10.30
2018-03-26T14:17:59.193Z,9.90
2018-03-26T14:20:27.610Z,9.60
2018-03-26T14:22:55.138Z,9.50
2018-03-26T14:25:22.711Z,9.60
2018-03-26T14:27:51.047Z,9.80
2018-03-26T14:30:18.627Z,9.80
2018-03-26T14:32:46.154Z,9.70
2018-03-26T14:38:28.692Z,9.90
2018-03-26T14:40:58.168Z,9.70
2018-03-26T14:43:25.798Z,9.80
2018-03-26T14:45:54.166Z,9.70
2018-03-26T14:48:21.722Z,9.70
2018-03-26T14:50:49.323Z,9.60
2018-03-26T14:53:16.888Z,9.50
2018-03-26T14:55:44.473Z,9.30
2018-03-26T14:58:12.010Z,9.20
2018-03-26T15:00:39.549Z,9.40
2018-03-26T15:03:07.168Z,9.50
2018-03-26T15:05:35.475Z,9.50
2018-03-26T15:08:03.034Z,9.50
2018-03-26T15:10:30.562Z,9.40
2018-03-26T15:12:58.114Z,9.40
2018-03-26T15:15:25.645Z,9.60
2018-03-26T15:17:54.100Z,9.40
2018-03-26T15:20:21.637Z,9.30
2018-03-26T15:22:49.202Z,9.20
2018-03-26T15:25:17.726Z,9.10
2018-03-26T15:27:45.276Z,9.10
2018-03-26T15:30:12.797Z,9.20
2018-03-26T15:32:41.130Z,9.30
2018-03-26T15:35:08.664Z,9.30
2018-03-26T15:37:36.214Z,9.10
2018-03-26T15:40:06.624Z,9.00
2018-03-26T15:42:36.926Z,9.10
2018-03-26T15:45:04.508Z,9.10
2018-03-26T15:47:32.122Z,9.00
2018-03-26T15:49:59.741Z,9.00
2018-03-26T15:52:27.314Z,8.90
2018-03-26T15:54:54.854Z,8.70
2018-03-26T15:57:22.429Z,8.60
2018-03-26T15:59:49.973Z,8.50
2018-03-26T16:02:17.545Z,8.50
2018-03-26T16:04:45.850Z,8.40
2018-03-26T16:07:13.421Z,8.40
2018-03-26T16:09:40.962Z,8.30
2018-03-26T16:12:08.526Z,8.40
2018-03-26T16:14:36.061Z,8.40
2018-03-26T16:17:03.609Z,8.40
2018-03-26T16:19:31.141Z,8.30
2018-03-26T16:21:58.697Z,8.20
2018-03-26T16:24:27.006Z,8.10
2018-03-26T16:26:54.562Z,8.10
2018-03-26T16:29:22.097Z,8.00
2018-03-26T16:31:50.422Z,7.90
2018-03-26T16:34:17.950Z,7.90
2018-03-26T16:36:45.512Z,7.90
2018-03-26T16:39:13.053Z,7.80
2018-03-26T16:41:47.353Z,7.80
2018-03-26T16:44:15.653Z,7.80
2018-03-26T16:46:43.220Z,7.80
2018-03-26T16:49:10.759Z,7.80
2018-03-26T16:51:38.313Z,7.70
2018-03-26T16:54:06.621Z,7.50
2018-03-26T16:56:34.922Z,7.50
2018-03-26T16:59:02.465Z,7.40
2018-03-26T17:01:29.994Z,7.30
2018-03-26T17:03:57.545Z,7.30
2018-03-26T17:06:25.086Z,7.20
2018-03-26T17:08:53.403Z,7.10
2018-03-26T17:11:20.942Z,7.10
2018-03-26T17:13:48.498Z,7.00
2018-03-26T17:16:16.054Z,7.00
2018-03-26T17:18:44.395Z,6.90
2018-03-26T17:21:11.942Z,6.90
2018-03-26T17:23:39.510Z,6.90
2018-03-26T17:26:07.050Z,6.80
2018-03-26T17:28:34.610Z,6.70
2018-03-26T17:31:02.222Z,6.60
2018-03-26T17:33:29.781Z,6.50
2018-03-26T17:35:58.073Z,6.40
2018-03-26T17:38:25.624Z,6.40
2018-03-26T17:40:53.151Z,6.40
2018-03-26T17:43:20.701Z,6.40
2018-03-26T17:45:48.266Z,6.30
2018-03-26T17:48:15.832Z,6.20
2018-03-26T17:50:44.137Z,6.00
2018-03-26T17:53:11.701Z,6.00
2018-03-26T17:55:39.237Z,5.90
2018-03-26T17:58:07.562Z,5.70
2018-03-26T18:00:35.094Z,5.70
2018-03-26T18:03:02.652Z,5.60
2018-03-26T18:05:30.182Z,5.60
2018-03-26T18:07:58.509Z,5.50
2018-03-26T18:10:26.041Z,5.40
2018-03-26T18:12:53.612Z,5.50
2018-03-26T18:15:21.142Z,5.40
2018-03-26T18:17:49.452Z,5.40
2018-03-26T18:20:16.983Z,5.40
2018-03-26T18:22:44.530Z,5.40
2018-03-26T18:25:12.830Z,5.40
2018-03-26T18:27:40.372Z,5.40
2018-03-26T18:30:08.677Z,5.40
2018-03-26T18:32:36.229Z,5.40
2018-03-26T18:35:03.759Z,5.40
2018-03-26T18:37:32.126Z,5.30
2018-03-26T18:39:59.617Z,5.30
2018-03-26T18:42:27.162Z,5.30
2018-03-26T18:44:54.696Z,5.30
2018-03-26T18:47:22.231Z,5.30
2018-03-26T18:49:49.775Z,5.30
2018-03-26T18:52:17.309Z,5.30
2018-03-26T18:54:44.858Z,5.30
2018-03-26T18:57:12.391Z,5.40
2018-03-26T18:59:39.942Z,5.30
2018-03-26T19:02:07.469Z,5.30
2018-03-26T19:04:35.021Z,5.30
2018-03-26T19:07:02.544Z,5.30
2018-03-26T19:09:30.861Z,5.20
2018-03-26T19:11:58.385Z,5.20
2018-03-26T19:14:25.937Z,5.20
2018-03-26T19:16:53.457Z,5.20
2018-03-26T19:19:20.999Z,5.10
2018-03-26T19:21:48.533Z,5.10
2018-03-26T19:24:16.087Z,5.10
2018-03-26T19:26:43.618Z,5.10
2018-03-26T19:29:11.937Z,5.00
2018-03-26T19:31:39.465Z,4.90
2018-03-26T19:34:07.013Z,5.00
2018-03-26T19:36:35.306Z,5.00
2018-03-26T19:39:02.858Z,4.90
2018-03-26T19:41:30.393Z,5.00
2018-03-26T19:43:57.937Z,5.00
2018-03-26T19:46:25.689Z,5.00
2018-03-26T19:48:53.234Z,5.00
2018-03-26T19:51:20.756Z,5.00
2018-03-26T19:53:48.309Z,4.90
2018-03-26T19:56:16.597Z,4.90
2018-03-26T19:58:44.152Z,4.90
2018-03-26T20:01:11.685Z,4.90
2018-03-26T20:03:39.241Z,4.80
2018-03-26T20:06:07.541Z,4.80
2018-03-26T20:08:35.090Z,4.80
2018-03-26T20:11:03.377Z,4.70
2018-03-26T20:13:30.925Z,4.70
2018-03-26T20:15:59.217Z,4.60
2018-03-26T20:18:26.770Z,4.60
2018-03-26T20:20:54.307Z,4.60
2018-03-26T20:23:22.625Z,4.60
2018-03-26T20:25:50.145Z,4.60
2018-03-26T20:28:18.462Z,4.60
2018-03-26T20:30:45.987Z,4.60
2018-03-26T20:33:14.303Z,4.60
2018-03-26T20:35:41.833Z,4.60
2018-03-26T20:38:09.400Z,4.60
2018-03-26T20:40:36.930Z,4.50
2018-03-26T20:43:05.229Z,4.40
2018-03-26T20:45:32.786Z,4.40
2018-03-26T20:48:00.319Z,4.40
2018-03-26T20:50:28.633Z,4.40
2018-03-26T20:52:56.162Z,4.40
2018-03-26T20:55:24.478Z,4.30
2018-03-26T20:57:52.010Z,4.30
2018-03-26T21:00:19.561Z,4.30
2018-03-26T21:02:47.854Z,4.30
2018-03-26T21:05:15.413Z,4.20
2018-03-26T21:07:42.948Z,4.20
2018-03-26T21:10:10.540Z,4.20
2018-03-26T21:12:38.101Z,4.20
2018-03-26T21:15:05.658Z,4.20
2018-03-26T21:17:33.206Z,4.10
2018-03-26T21:20:00.752Z,4.10
2018-03-26T21:22:28.293Z,4.10
2018-03-26T21:24:56.631Z,4.00
2018-03-26T21:27:24.173Z,4.00
2018-03-26T21:29:51.749Z,4.00
2018-03-26T21:32:19.276Z,4.00
2018-03-26T21:34:46.832Z,4.00
2018-03-26T21:37:14.370Z,4.00
2018-03-26T21:39:41.988Z,4.00
2018-03-26T21:42:09.568Z,4.00
2018-03-26T21:44:37.931Z,4.00
2018-03-26T21:47:05.520Z,4.00
2018-03-26T21:49:33.865Z,4.00
2018-03-26T21:52:01.429Z,4.00
2018-03-26T21:54:29.026Z,4.00
2018-03-26T21:56:56.589Z,4.00
2018-03-26T21:59:24.176Z,3.90
2018-03-26T22:01:51.741Z,3.90
2018-03-26T22:04:19.312Z,3.90
2018-03-26T22:06:46.872Z,3.80
2018-03-26T22:09:14.450Z,3.80
2018-03-26T22:11:42.001Z,3.90
2018-03-26T22:14:09.609Z,3.90
2018-03-26T22:16:37.173Z,3.90
2018-03-26T22:19:04.757Z,3.80
2018-03-26T22:21:32.314Z,3.80
2018-03-26T22:23:59.886Z,3.80
2018-03-26T22:26:27.452Z,3.80
2018-03-26T22:28:55.018Z,3.70
2018-03-26T22:31:22.617Z,3.80
2018-03-26T22:33:50.169Z,3.70
2018-03-26T22:36:17.718Z,3.70
2018-03-26T22:38:45.291Z,3.70
2018-03-26T22:41:12.842Z,3.70
2018-03-26T22:43:40.393Z,3.70
2018-03-26T22:46:08.713Z,3.70
2018-03-26T22:48:36.245Z,3.60
2018-03-26T22:51:03.811Z,3.70
2018-03-26T22:53:31.353Z,3.60
2018-03-26T22:55:58.917Z,3.60
2018-03-26T22:58:26.454Z,3.60
2018-03-26T23:00:54.808Z,3.60
2018-03-26T23:03:22.358Z,3.60
2018-03-26T23:05:49.945Z,3.60
2018-03-26T23:08:17.501Z,3.60
2018-03-26T23:10:45.844Z,3.60
2018-03-26T23:13:13.387Z,3.60
2018-03-26T23:15:40.955Z,3.60
2018-03-26T23:18:08.505Z,3.60
2018-03-26T23:20:36.097Z,3.60
2018-03-26T23:23:03.670Z,3.60
2018-03-26T23:25:31.256Z,3.70
2018-03-26T23:27:58.815Z,3.70
2018-03-26T23:30:26.441Z,3.70
2018-03-26T23:32:54.127Z,3.70
2018-03-26T23:35:21.689Z,3.70
2018-03-26T23:37:49.999Z,3.60
2018-03-26T23:40:17.564Z,3.60
2018-03-26T23:42:45.118Z,3.60
2018-03-26T23:45:12.732Z,3.60
2018-03-26T23:47:40.350Z,3.60
2018-03-26T23:50:07.938Z,3.60
2018-03-26T23:52:35.486Z,3.50
2018-03-26T23:55:03.162Z,3.50
2018-03-26T23:57:30.729Z,3.50
2018-03-26T23:59:59.114Z,3.40
